• Join FlightAware (Why Join?)
  • Login
  • US Flag 
12:22AM EST


 

Airport Tracker/Info


-or-


 

Live Flight TrackerFlight Track Log ✈ SWA2435 ✈ 26-Apr-2014 ✈ KAUS - KDAL

Flight Track Log - Related Links

Times and Time Zones

All times are in EDT time to prevent confusion due to time zone crossing. See the SWA2435 flight status page for this flight to view local times or setup timezone preferences in your user account.

Time Position Orientation Groundspeed Altitude Reporting Facility
EDT Latitude Longitude Course Direction KTS MPH feet Rate Location/Type
09:30AM 30.0864 -97.6053 47° Northeast 217 250 5,500  Level Houston Center
09:31AM 30.0664 -97.5333 108° East 240 276 8,000 2,565 Climbing Houston Center
09:32AM 30.1453 -97.4922 24° Northeast 299 344 10,800 2,634 Climbing Houston Center
09:33AM 30.2333 -97.4503 22° Northeast 335 386 13,400 2,585 Climbing Houston Center
09:34AM 30.5210 -97.3405 47° Northeast  Level FlightAware Approximate
09:34AM 30.3281 -97.4075 21° North 361 415 16,100  Level Houston Center
09:35AM 30.5830 -97.2671 41° Northeast  Level FlightAware Approximate
09:35AM 30.4292 -97.3628 21° North 383 441 19,000  Level Houston Center
09:36AM 30.6408 -97.1907 47° Northeast  Level FlightAware Approximate
09:36AM 30.5328 -97.3153 22° Northeast 399 459 21,700  Level Houston Center
09:37AM 30.6444 -97.2131 38° Northeast 437 503 22,000 145 Climbing Houston Center
09:38AM 30.7292 -97.1119 46° Northeast 439 505 22,000  Level Houston Center
09:39AM 30.8122 -97.0125 46° Northeast 439 505 22,000  Level Houston Center
09:41AM 30.8928 -96.9142 46° Northeast 429 494 22,000  Level Houston Center
09:42AM 30.9736 -96.8158 46° Northeast 425 489 22,000  Level Houston Center
09:43AM 31.0539 -96.7192 46° Northeast 421 484 22,000  Level Houston Center
09:44AM 31.1664 -96.6325 33° Northeast 416 479 22,000  Level Houston Center
09:45AM 31.2744 -96.5911 18° North 410 472 22,000  Level Houston Center
09:46AM 31.3817 -96.5461 20° North 410 472 22,000  Level Houston Center
09:47AM 31.4897 -96.5033 19° North 410 472 22,000  Level Houston Center
09:48AM 31.5972 -96.4583 20° North 410 472 22,000  Level Houston Center
09:49AM 31.7078 -96.4142 19° North 415 478 22,000 -135 Level Houston Center
09:50AM 31.8483 -96.3550 20° North 418 481 21,700 -1,038 Descending Fort Worth Center
09:51AM 31.9539 -96.3128 19° North 406 467 19,700 -2,032 Descending Fort Worth Center
09:52AM 32.0556 -96.2903 11° North 390 449 17,500 -2,341 Descending Fort Worth Center
09:53AM 32.1525 -96.3117 349° North 360 414 14,900 -2,829 Descending Fort Worth Center
09:54AM 32.2708 -96.3339 351° North 349 402 11,700 -2,323 Descending Fort Worth Center
09:55AM 32.3594 -96.3519 350° North 325 374 10,100 -1,306 Descending Fort Worth Center
09:56AM 32.4364 -96.3686 350° North 283 326 9,000 -537 Descending Fort Worth Center
09:57AM 32.5128 -96.4147 333° Northwest 288 331 9,000  Level Fort Worth Center
09:58AM 32.5853 -96.4581 333° Northwest 290 334 9,000 -726 Level Fort Worth Center
09:59AM 32.6578 -96.5019 333° Northwest 292 336 7,500 -1,382 Descending Fort Worth Center
10:01AM 32.7833 -96.6167 322° Northwest 270 311 4,900 -1,135 Descending Dallas / Fort Worth TRACON
10:02AM 32.8358 -96.6875 311° West 277 319 4,000 -412 Descending Fort Worth Center
10:03AM 32.8833 -96.7511 312° West 268 308 4,000 -488 Level Fort Worth Center
10:04AM 32.9325 -96.8136 313° West 263 303 3,000 -829 Descending Fort Worth Center
10:05AM 32.9417 -96.8839 279° West 194 223 2,300 -581 Descending Fort Worth Center
10:06AM 32.9086 -96.9142 218° Southwest 151 174 1,800 -581 Descending Fort Worth Center
10:07AM 32.8803 -96.8850 139° Southeast 127 146 1,100 -634 Descending Fort Worth Center
10:08AM 32.8553 -96.8544 134° Southeast 125 144 500 -590 Descending Fort Worth Center